APRS [IN73IL], 0 Stunde(n), DL3EL [08:13:58, 0s].
EA1JBU 43.30.80N 005.16.20WIN73IM 4.173km 25°NNE06:00:06ZEA1JBU(3EA1JBU-2)
EA1JBE 43.30.90N 005.16.15WIN73IM 4.375km 25°NNE06:09:58ZMAIN QTH http://qrz.com/db/ea1jbe(3EA1JBE-1)
MAIN QTH http://qrz.com/db/ea1jbe(2EA1JBE-13)
EA1HWD 43.28.96N 005.26.30WIN73GL 11.835km 272°W06:00:36Z144.575FM Local frecuency VHF. 434.2500/434.2500 CC1
EA1FHR 43.28.72N 005.26.41WIN73GL 11.991km 270°W06:00:42ZMMDVM MMDVM HS Hat 439.1500/439.1500 CC1
ED1ZBF 43.19.16N 005.06.74WIN73KH 22.908km 141°SE06:00:25ZRD625 438.4750/430.8750 CC1
EB1GEM 43.30.00N 005.36.07WIN73EM 25.070km 275°W06:11:25ZWX3in1Plus2.0 U=13.3V,T=??.?C/??.?F(3EB1GEM-3)
EA1FLQ 43.22.00N 005.36.35WIN73EI 28.295km 244°WSW06:01:44ZMMDVM DVMega 439.9750/439.9750 CC1
ED1ZAS 43.27.52N 005.40.17WIN73DL 30.581km 266°W06:00:28ZRD985 438.2250/430.6250 CC1
EA1DZR 43.31.47N 005.40.00WIN73DM 30.668km 280°W06:01:52ZMMDVM DVMega 431.1000/431.1000 CC1
EA1EDI 43.30.54N 005.40.31WIN73DM 30.839km 276°W06:12:04ZIN73DM Gijón Asturias QAP/RU726 p.Cima
ED1ZAE 43.27.97N 005.40.54WIN73DL 31.025km 267°W06:00:32Z400 M. PICO SAN MARTIN (GIJON) 13.4V,21.0C(3ED1ZAE-3)
2m Voice 145.5875 -0.600 Mhz(2ED1ZAE-C)
EA1FFA 43.31.53N 005.40.64WIN73DM 31.524km 280°W06:00:44ZMMDVM MMDVM HS Hat 438.8000/438.8000 CC1
EA1IEJ 43.31.81N 005.40.64WIN73DM 31.612km 280°W06:01:25ZMMDVM MMDVM HS Hat 438.8500/438.8500 CC6
LEEL 43.32.98N 005.41.71WIN73DN 33.473km 284°WNW06:00:07ZHelipuerto de El Musel: LEAS 040534Z 27010KT 1400 R29/1800D R11/1800D RA BKN002 BKN008 18/18 Q1016 TEMPO 6000 -RA=
EB1TK 43.32.22N 005.42.32WIN73DM 33.970km 281°W06:05:19ZWind 293°/005kn, Böen bis 013kn, Temp 18.89c, Regen 5.6mm, letzte 24h 16.8mm, seit 0h 16.8mm, Baro 1019.1h, Hum: 95%(3EB1TK-13)
ED1YCF 43.23.67N 004.49.64WIN73OJ 38.635km 104°ESE06:10:28Z12.4V 35C(3ED1YCF-3)
ED1ZBC 43.23.67N 004.49.65WIN73OJ 38.627km 104°ESE06:00:27ZRepetidor trabajando con placa solar y batería, está solamente de forma estatica el TG21433 por slot 438.5250/430.9250 CC1
EA1ABW 43.24.77N 005.47.77WIN73CJ 41.392km 260°W06:00:35ZMMDVM MMDVM HS Hat 439.8250/439.8250 CC1
LEMR 43.25.83N 005.49.60WIN73CK 43.526km 263°W06:00:07ZAerodromo de la Morgal: LEAS 040534Z 27010KT 1400 R29/1800D R11/1800D RA BKN002 BKN008 18/18 Q1016 TEMPO 6000 -RA=
LEGM 43.26.15N 005.49.84WIN73CK 43.760km 264°W06:00:05ZHelipuerto de La Morgal: LEAS 040534Z 27010KT 1400 R29/1800D R11/1800D RA BKN002 BKN008 18/18 Q1016 TEMPO 6000 -RA=
LEHU 43.22.63N 005.49.57WIN73CJ 44.632km 255°WSW06:00:06ZHelipuerto del HUCA: LEAS 040534Z 27010KT 1400 R29/1800D R11/1800D RA BKN002 BKN008 18/18 Q1016 TEMPO 6000 -RA=
33D00 43.21.63N 005.51.13WIN73BI 47.144km 254°WSW06:01:57Z33-D-00 Protección Civil REMER / Delegación del Gobierno en Asturias
EA1JAY 43.21.54N 005.51.34WIN73BI 47.475km 254°WSW06:00:06ZEA1JAY(3EA1JAY-2)
434.525MHz Nodo TETRA DMO(2EA1JAY-4)
EA1IMW 43.14.36N 005.46.93WIN73CF 47.780km 236°SW06:01:59ZGRUPO RADIO GALENA (GRG) 433.4500/433.4500 CC1
EA1HWX 43.19.87N 005.50.85WIN73BH 47.808km 250°WSW06:01:23ZMMDVM MMDVM HS Dual Hat 430.0000/440.0000 CC1
EA1L 43.20.38N 005.51.13WIN73BI 47.858km 251°WSW06:07:08ZWind 342°/001kn, Böen bis 002kn, Temp 22.22c, Regen 0.0mm, letzte 24h 4.8mm, seit 0h 4.8mm, Baro 1014.6h, Hum: 0%(3EA1L-13)
ea1l@ure.es V=13.8V,T=??.?C(2EA1L)
EA1YR 43.22.09N 005.51.86WIN73BI 47.866km 255°WSW06:02:18ZMMDVM DVS 434.3500/434.3500 CC1
ED1ZAD 43.07.90N 005.38.52WIN73ED 47.910km 216°SW06:07:05ZED1ZAD-3 APRS Digi/Igate(3ED1ZAD-3)
EB1DGC 43.12.60N 005.45.59WIN73CF 48.263km 232°SW06:00:40ZMMDVM MMDVM HS Hat 433.4500/433.4500 CC1
EA1HJA 43.21.47N 005.52.09WIN73BI 48.476km 254°WSW06:13:40Z IN73FL WX3IN1+ 2.0 - V=13.3V,TX TEMP=31.6C(3EA1HJA-2)
IN73FL WX3IN1+ 2.0 - V=13.9V,TX TEMP=45.6C(2EA1HJA)
ED1ZAU 43.23.04N 005.52.75WIN73BJ 48.610km 258°WSW06:00:29ZRD625 438.5000/430.9000 CC1

aprs.pl 5.0.011w DL3EL © 2006-2021 [626551]